This is the latest recevied weather packets stored in our database for station/object K5IDL. If no packets are shown the sender has not sent any weather packets the latest 10 day(s).
| Time | Temp. | Humidity | Pressure | Rain* | Wind** | Luminosity | Snow |
|---|---|---|---|---|---|---|---|
| 1777727016 | 16.11° C | 63% | 1022 hPa | 0 mm | - | 96 W/m² | - |
| 1777726712 | 16.67° C | 63% | 1021.9 hPa | 0 mm | - | 86 W/m² | - |
| 1777726410 | 17.22° C | 65% | 1021.8 hPa | 0 mm | - | 77 W/m² | - |
| 1777726106 | 17.78° C | 63% | 1021.9 hPa | 0 mm | - | 69 W/m² | - |
| 1777725803 | 16.11° C | 68% | 1021.6 hPa | 0 mm | - | 60 W/m² | - |
| 1777725501 | 16.67° C | 71% | 1021.7 hPa | 0 mm | - | 52 W/m² | - |
| 1777725198 | 15° C | 78% | 1021.6 hPa | 0 mm | - | 44 W/m² | - |
| 1777724895 | 12.78° C | 86% | 1021.6 hPa | 0 mm | - | 30 W/m² | - |
| 1777724591 | 11.67° C | 92% | 1021.3 hPa | 0 mm | - | 27 W/m² | - |
| 1777724289 | 10.56° C | 93% | 1021.3 hPa | 0 mm | - | 24 W/m² | - |
| 1777723987 | 10° C | 93% | 1021.5 hPa | 0 mm | - | 14 W/m² | - |
| 1777723683 | 10° C | 93% | 1021.1 hPa | 0 mm | - | 12 W/m² | - |
| 1777723380 | 10° C | 93% | 1021.1 hPa | 0 mm | - | 10 W/m² | - |
| 1777723078 | 10° C | 93% | 1021.3 hPa | 0 mm | - | 8 W/m² | - |
| 1777722774 | 10° C | 93% | 1021.1 hPa | 0 mm | - | 6 W/m² | - |
| 1777722470 | 10° C | 93% | 1020.8 hPa | 0 mm | - | 4 W/m² | - |
| 1777722167 | 10° C | 93% | 1020.9 hPa | 0 mm | - | 3 W/m² | - |
| 1777721865 | 10° C | 93% | 1020.8 hPa | 0 mm | - | 1 W/m² | - |
| 1777721563 | 10.56° C | 93% | 1020.8 hPa | 0 mm | - | 1 W/m² | - |
| 1777721260 | 10.56° C | 92% | 1020.5 hPa | 0 mm | - | 0 W/m² | - |
| 1777720958 | 10.56° C | 92% | 1020.5 hPa | 0 mm | - | 0 W/m² | - |
| 1777720654 | 10.56° C | 92% | 1020.6 hPa | 0 mm | - | 0 W/m² | - |
| 1777720352 | 10.56° C | 92% | 1020.5 hPa | 0 mm | - | 0 W/m² | - |
| 1777720049 | 10.56° C | 91% | 1020.6 hPa | 0 mm | - | 0 W/m² | - |
| 1777719747 | 11.11° C | 91% | 1020.7 hPa | 0 mm | - | 0 W/m² | - |
* Rain latest hour (hover to see other rain measurements)
** Current wind speed in m/s (hover to see current wind gust speed)